PrentiSS Brown — WDE6848 — position and weather

sailwx.info

Track history (hours):
 
Tides and Currents Weather Stations Pressure Air Temp Water Temp Dewpoint Dewpoint Depression Visibility Wind Speed Wind Dir Waves Ship Positions

PrentiSS Brown

Owner: Port City Marine Services Inc, Muskegon, MI. More information available from US FCC via Universal Licensing System and Coast Guard Vessel Documentation Center.

Last reported at 2015-Aug-31 00:18 UTC. Time now 2015-Aug-31 17:47 UTC.
Position N 44°56' W 086°09'.

; draft 5.3 m.

Type: Other ship. MMSI: 366922280.

Date/timePositionNaut miles runAvg speedWind from/ knotsBaromVisibWave heightAir tempDewpointWater temp
2015-Aug-31 00:18N 44°56' W 086°09'7 7.4
2015-Aug-30 23:22N 44°59' W 086°00'7 8.1
2015-Aug-30 22:32N 45°03' W 085°52'8 8.5
2015-Aug-30 21:33N 45°09' W 085°44'7 7.3
2015-Aug-30 20:33N 45°14' W 085°36'8 7.9
2015-Aug-30 19:32N 45°18' W 085°26'6 6.5
2015-Aug-30 18:33N 45°19' W 085°17'0 0.4
2015-Aug-30 17:34N 45°19' W 085°18'0 0.0
2015-Aug-30 16:33N 45°19' W 085°18'0 0.0
2015-Aug-30 15:33N 45°19' W 085°18'0 0.0
2015-Aug-30 14:33N 45°19' W 085°18'0 0.0
2015-Aug-30 13:33N 45°19' W 085°18'1 1.3
2015-Aug-30 12:34N 45°20' W 085°18'9 9.3
2015-Aug-30 11:33N 45°16' W 085°30'9 8.7
2015-Aug-30 10:33N 45°12' W 085°41'8 7.9
2015-Aug-30 09:34N 45°06' W 085°49'9 9.0
2015-Aug-30 08:33N 45°00' W 085°58'  
2015-Aug-27 04:17N 45°06' W 085°49'6 8.3
2015-Aug-27 03:33N 45°10' W 085°43'8 8.3
2015-Aug-27 02:33N 45°15' W 085°33'8 8.3
2015-Aug-27 01:33N 45°19' W 085°23'4 3.6
2015-Aug-27 00:33N 45°19' W 085°18'0 0.1
2015-Aug-26 23:34N 45°19' W 085°18'0 0.0
2015-Aug-26 22:33N 45°19' W 085°18'0 0.0
2015-Aug-26 21:33N 45°19' W 085°18'0 0.0
2015-Aug-26 20:33N 45°19' W 085°18'0 0.0
2015-Aug-26 19:33N 45°19' W 085°18'0 0.0
2015-Aug-26 18:33N 45°19' W 085°18'6 5.6
2015-Aug-26 17:33N 45°18' W 085°26'7 7.5
2015-Aug-26 16:33N 45°14' W 085°35'8 7.6
2015-Aug-26 15:33N 45°12' W 085°45'  
2015-Aug-23 02:32N 44°56' W 086°07'7 7.1
2015-Aug-23 01:33N 44°60' W 085°59'8 7.7
2015-Aug-23 00:33N 45°05' W 085°50'8 7.9
2015-Aug-22 23:33N 45°10' W 085°42'7 6.8
2015-Aug-22 22:33N 45°14' W 085°35'8 7.7
2015-Aug-22 21:33N 45°18' W 085°25'6 5.6
2015-Aug-22 20:33N 45°19' W 085°17'0 0.4
2015-Aug-22 19:33N 45°19' W 085°18'0 0.0
2015-Aug-22 18:34N 45°19' W 085°18'0 0.0
2015-Aug-22 17:34N 45°19' W 085°18'0 0.0
2015-Aug-22 16:33N 45°19' W 085°18'0 0.0
2015-Aug-22 15:33N 45°19' W 085°18'0 0.0
2015-Aug-22 14:33N 45°19' W 085°18'0 0.0
2015-Aug-22 13:33N 45°19' W 085°18'0 0.1
2015-Aug-22 12:33N 45°19' W 085°18'6 5.6
2015-Aug-22 11:33N 45°18' W 085°25'10 9.9
2015-Aug-22 10:33N 45°14' W 085°38'9 8.6
2015-Aug-22 09:34N 45°08' W 085°47'9 9.4
2015-Aug-22 08:33N 45°01' W 085°56'  
Track history (hours):
 
Tides and Currents Weather Stations Pressure Air Temp Water Temp Dewpoint Dewpoint Depression Visibility Wind Speed Wind Dir Waves Ship Positions

PrentiSS Brown

Owner: Port City Marine Services Inc, Muskegon, MI. More information available from US FCC via Universal Licensing System and Coast Guard Vessel Documentation Center.

Last reported at 2015-Aug-31 00:18 UTC. Time now 2015-Aug-31 17:47 UTC.
Position N 44°56' W 086°09'.

; draft 5.3 m.

Type: Other ship. MMSI: 366922280.

Date/timePositionNaut miles runAvg speedWind from/ knotsBaromVisibWave heightAir tempDewpointWater temp
2015-Aug-31 00:18N 44°56' W 086°09'7 7.4
2015-Aug-30 23:22N 44°59' W 086°00'7 8.1
2015-Aug-30 22:32N 45°03' W 085°52'8 8.5
2015-Aug-30 21:33N 45°09' W 085°44'7 7.3
2015-Aug-30 20:33N 45°14' W 085°36'8 7.9
2015-Aug-30 19:32N 45°18' W 085°26'6 6.5
2015-Aug-30 18:33N 45°19' W 085°17'0 0.4
2015-Aug-30 17:34N 45°19' W 085°18'0 0.0
2015-Aug-30 16:33N 45°19' W 085°18'0 0.0
2015-Aug-30 15:33N 45°19' W 085°18'0 0.0
2015-Aug-30 14:33N 45°19' W 085°18'0 0.0
2015-Aug-30 13:33N 45°19' W 085°18'1 1.3
2015-Aug-30 12:34N 45°20' W 085°18'9 9.3
2015-Aug-30 11:33N 45°16' W 085°30'9 8.7
2015-Aug-30 10:33N 45°12' W 085°41'8 7.9
2015-Aug-30 09:34N 45°06' W 085°49'9 9.0
2015-Aug-30 08:33N 45°00' W 085°58'  
2015-Aug-27 04:17N 45°06' W 085°49'6 8.3
2015-Aug-27 03:33N 45°10' W 085°43'8 8.3
2015-Aug-27 02:33N 45°15' W 085°33'8 8.3
2015-Aug-27 01:33N 45°19' W 085°23'4 3.6
2015-Aug-27 00:33N 45°19' W 085°18'0 0.1
2015-Aug-26 23:34N 45°19' W 085°18'0 0.0
2015-Aug-26 22:33N 45°19' W 085°18'0 0.0
2015-Aug-26 21:33N 45°19' W 085°18'0 0.0
2015-Aug-26 20:33N 45°19' W 085°18'0 0.0
2015-Aug-26 19:33N 45°19' W 085°18'0 0.0
2015-Aug-26 18:33N 45°19' W 085°18'6 5.6
2015-Aug-26 17:33N 45°18' W 085°26'7 7.5
2015-Aug-26 16:33N 45°14' W 085°35'8 7.6
2015-Aug-26 15:33N 45°12' W 085°45'  
2015-Aug-23 02:32N 44°56' W 086°07'7 7.1
2015-Aug-23 01:33N 44°60' W 085°59'8 7.7
2015-Aug-23 00:33N 45°05' W 085°50'8 7.9
2015-Aug-22 23:33N 45°10' W 085°42'7 6.8
2015-Aug-22 22:33N 45°14' W 085°35'8 7.7
2015-Aug-22 21:33N 45°18' W 085°25'6 5.6
2015-Aug-22 20:33N 45°19' W 085°17'0 0.4
2015-Aug-22 19:33N 45°19' W 085°18'0 0.0
2015-Aug-22 18:34N 45°19' W 085°18'0 0.0
2015-Aug-22 17:34N 45°19' W 085°18'0 0.0
2015-Aug-22 16:33N 45°19' W 085°18'0 0.0
2015-Aug-22 15:33N 45°19' W 085°18'0 0.0
2015-Aug-22 14:33N 45°19' W 085°18'0 0.0
2015-Aug-22 13:33N 45°19' W 085°18'0 0.1
2015-Aug-22 12:33N 45°19' W 085°18'6 5.6
2015-Aug-22 11:33N 45°18' W 085°25'10 9.9
2015-Aug-22 10:33N 45°14' W 085°38'9 8.6
2015-Aug-22 09:34N 45°08' W 085°47'9 9.4
2015-Aug-22 08:33N 45°01' W 085°56'  

Dump ship's entire track history